sensor_id;sensor_type;location;lat;lon;timestamp;P1;durP1;ratioP1;P2;durP2;ratioP2
51384;SDS011;37478;55.682;37.462;2024-03-07T00:01:24;6.00;;;3.15;;
51384;SDS011;37478;55.682;37.462;2024-03-07T00:03:51;5.75;;;2.72;;
51384;SDS011;37478;55.682;37.462;2024-03-07T00:06:17;7.95;;;3.67;;
51384;SDS011;37478;55.682;37.462;2024-03-07T00:08:42;7.15;;;3.05;;
51384;SDS011;37478;55.682;37.462;2024-03-07T00:11:07;9.40;;;3.70;;
51384;SDS011;37478;55.682;37.462;2024-03-07T00:13:34;12.98;;;5.22;;
51384;SDS011;37478;55.682;37.462;2024-03-07T00:15:59;13.90;;;5.68;;
51384;SDS011;37478;55.682;37.462;2024-03-07T00:18:24;9.88;;;4.72;;
51384;SDS011;37478;55.682;37.462;2024-03-07T00:20:50;10.25;;;4.38;;
51384;SDS011;37478;55.682;37.462;2024-03-07T00:23:15;9.18;;;4.15;;
51384;SDS011;37478;55.682;37.462;2024-03-07T00:25:42;18.00;;;4.43;;
51384;SDS011;37478;55.682;37.462;2024-03-07T00:28:07;9.77;;;4.00;;
51384;SDS011;37478;55.682;37.462;2024-03-07T00:30:32;10.98;;;4.60;;
51384;SDS011;37478;55.682;37.462;2024-03-07T00:32:59;8.45;;;4.50;;
51384;SDS011;37478;55.682;37.462;2024-03-07T00:35:24;8.88;;;4.72;;
51384;SDS011;37478;55.682;37.462;2024-03-07T00:37:50;11.18;;;5.07;;
51384;SDS011;37478;55.682;37.462;2024-03-07T00:40:15;16.48;;;5.18;;
51384;SDS011;37478;55.682;37.462;2024-03-07T00:42:41;14.65;;;4.30;;
51384;SDS011;37478;55.682;37.462;2024-03-07T00:45:06;8.35;;;5.63;;
51384;SDS011;37478;55.682;37.462;2024-03-07T00:47:31;10.27;;;4.95;;
51384;SDS011;37478;55.682;37.462;2024-03-07T00:49:57;12.95;;;4.95;;
51384;SDS011;37478;55.682;37.462;2024-03-07T00:52:22;14.43;;;5.82;;
51384;SDS011;37478;55.682;37.462;2024-03-07T00:54:48;8.73;;;4.63;;
51384;SDS011;37478;55.682;37.462;2024-03-07T00:57:14;13.63;;;4.70;;
51384;SDS011;37478;55.682;37.462;2024-03-07T00:59:39;7.93;;;3.90;;
51384;SDS011;37478;55.682;37.462;2024-03-07T01:02:05;11.00;;;4.28;;
51384;SDS011;37478;55.682;37.462;2024-03-07T01:04:30;7.68;;;3.80;;
51384;SDS011;37478;55.682;37.462;2024-03-07T01:06:56;9.23;;;4.43;;
51384;SDS011;37478;55.682;37.462;2024-03-07T01:09:22;11.10;;;4.90;;
51384;SDS011;37478;55.682;37.462;2024-03-07T01:11:48;12.85;;;4.93;;
51384;SDS011;37478;55.682;37.462;2024-03-07T01:14:14;12.10;;;4.40;;
51384;SDS011;37478;55.682;37.462;2024-03-07T01:16:40;8.10;;;4.78;;
51384;SDS011;37478;55.682;37.462;2024-03-07T01:19:06;8.65;;;4.03;;
51384;SDS011;37478;55.682;37.462;2024-03-07T01:21:32;16.08;;;4.35;;
51384;SDS011;37478;55.682;37.462;2024-03-07T01:23:58;10.48;;;5.18;;
51384;SDS011;37478;55.682;37.462;2024-03-07T01:26:25;11.23;;;4.35;;
51384;SDS011;37478;55.682;37.462;2024-03-07T01:28:50;12.82;;;4.18;;
51384;SDS011;37478;55.682;37.462;2024-03-07T01:31:16;16.20;;;4.03;;
51384;SDS011;37478;55.682;37.462;2024-03-07T01:33:41;10.68;;;4.35;;
51384;SDS011;37478;55.682;37.462;2024-03-07T01:36:06;8.30;;;4.03;;
51384;SDS011;37478;55.682;37.462;2024-03-07T01:38:31;14.40;;;5.00;;
51384;SDS011;37478;55.682;37.462;2024-03-07T01:40:57;9.32;;;4.93;;
51384;SDS011;37478;55.682;37.462;2024-03-07T01:43:22;9.75;;;4.05;;
51384;SDS011;37478;55.682;37.462;2024-03-07T01:45:47;9.88;;;4.50;;
51384;SDS011;37478;55.682;37.462;2024-03-07T01:48:14;7.93;;;4.35;;
51384;SDS011;37478;55.682;37.462;2024-03-07T01:50:44;7.88;;;4.60;;
51384;SDS011;37478;55.682;37.462;2024-03-07T01:53:10;8.85;;;3.90;;
51384;SDS011;37478;55.682;37.462;2024-03-07T01:55:36;12.88;;;4.88;;
51384;SDS011;37478;55.682;37.462;2024-03-07T01:58:02;8.70;;;4.00;;
51384;SDS011;37478;55.682;37.462;2024-03-07T02:00:29;5.53;;;3.42;;
51384;SDS011;37478;55.682;37.462;2024-03-07T02:02:55;9.23;;;4.32;;
51384;SDS011;37478;55.682;37.462;2024-03-07T02:05:21;6.60;;;4.20;;
51384;SDS011;37478;55.682;37.462;2024-03-07T02:07:46;7.90;;;3.75;;
51384;SDS011;37478;55.682;37.462;2024-03-07T02:10:12;5.63;;;2.63;;
51384;SDS011;37478;55.682;37.462;2024-03-07T02:12:38;6.28;;;2.70;;
51384;SDS011;37478;55.682;37.462;2024-03-07T02:15:03;4.97;;;2.90;;
51384;SDS011;37478;55.682;37.462;2024-03-07T02:17:29;4.78;;;2.90;;
51384;SDS011;37478;55.682;37.462;2024-03-07T02:19:54;8.15;;;3.15;;
51384;SDS011;37478;55.682;37.462;2024-03-07T02:22:20;3.85;;;2.88;;
51384;SDS011;37478;55.682;37.462;2024-03-07T02:24:45;5.15;;;3.00;;
51384;SDS011;37478;55.682;37.462;2024-03-07T02:27:11;7.07;;;2.83;;
51384;SDS011;37478;55.682;37.462;2024-03-07T02:29:37;7.38;;;3.75;;
51384;SDS011;37478;55.682;37.462;2024-03-07T02:32:02;7.03;;;3.13;;
51384;SDS011;37478;55.682;37.462;2024-03-07T02:34:28;9.77;;;2.95;;
51384;SDS011;37478;55.682;37.462;2024-03-07T02:36:53;5.40;;;2.45;;
51384;SDS011;37478;55.682;37.462;2024-03-07T02:39:18;5.78;;;2.92;;
51384;SDS011;37478;55.682;37.462;2024-03-07T02:41:45;5.97;;;3.15;;
51384;SDS011;37478;55.682;37.462;2024-03-07T02:44:12;9.80;;;3.97;;
51384;SDS011;37478;55.682;37.462;2024-03-07T02:46:38;12.50;;;3.92;;
51384;SDS011;37478;55.682;37.462;2024-03-07T02:49:03;7.60;;;3.17;;
51384;SDS011;37478;55.682;37.462;2024-03-07T02:51:29;9.02;;;4.18;;
51384;SDS011;37478;55.682;37.462;2024-03-07T02:53:55;7.28;;;3.88;;
51384;SDS011;37478;55.682;37.462;2024-03-07T02:56:20;7.35;;;3.33;;
51384;SDS011;37478;55.682;37.462;2024-03-07T02:58:45;7.03;;;3.50;;
51384;SDS011;37478;55.682;37.462;2024-03-07T03:01:11;8.30;;;3.45;;
51384;SDS011;37478;55.682;37.462;2024-03-07T03:03:36;7.53;;;3.67;;
51384;SDS011;37478;55.682;37.462;2024-03-07T03:06:02;6.57;;;3.95;;
51384;SDS011;37478;55.682;37.462;2024-03-07T03:08:28;9.50;;;3.95;;
51384;SDS011;37478;55.682;37.462;2024-03-07T03:10:56;6.70;;;3.92;;
51384;SDS011;37478;55.682;37.462;2024-03-07T03:13:23;7.72;;;3.75;;
51384;SDS011;37478;55.682;37.462;2024-03-07T03:15:48;7.22;;;2.97;;
51384;SDS011;37478;55.682;37.462;2024-03-07T03:18:13;9.48;;;4.20;;
51384;SDS011;37478;55.682;37.462;2024-03-07T03:20:39;7.05;;;3.00;;
51384;SDS011;37478;55.682;37.462;2024-03-07T03:23:04;11.30;;;4.07;;
51384;SDS011;37478;55.682;37.462;2024-03-07T03:25:30;11.68;;;4.15;;
51384;SDS011;37478;55.682;37.462;2024-03-07T03:28:00;8.73;;;3.92;;
51384;SDS011;37478;55.682;37.462;2024-03-07T03:30:25;6.43;;;3.33;;
51384;SDS011;37478;55.682;37.462;2024-03-07T03:32:51;8.43;;;3.90;;
51384;SDS011;37478;55.682;37.462;2024-03-07T03:35:17;7.97;;;3.97;;
51384;SDS011;37478;55.682;37.462;2024-03-07T03:37:42;10.90;;;4.30;;
51384;SDS011;37478;55.682;37.462;2024-03-07T03:40:08;10.50;;;4.40;;
51384;SDS011;37478;55.682;37.462;2024-03-07T03:42:40;7.50;;;4.55;;
51384;SDS011;37478;55.682;37.462;2024-03-07T03:45:07;8.82;;;4.22;;
51384;SDS011;37478;55.682;37.462;2024-03-07T03:47:36;9.13;;;4.00;;
51384;SDS011;37478;55.682;37.462;2024-03-07T03:50:05;10.15;;;4.32;;
51384;SDS011;37478;55.682;37.462;2024-03-07T03:52:31;7.88;;;4.20;;
51384;SDS011;37478;55.682;37.462;2024-03-07T03:54:56;11.95;;;4.25;;
51384;SDS011;37478;55.682;37.462;2024-03-07T03:57:22;10.20;;;3.83;;
51384;SDS011;37478;55.682;37.462;2024-03-07T03:59:47;11.88;;;5.10;;
51384;SDS011;37478;55.682;37.462;2024-03-07T04:02:13;9.90;;;4.03;;
51384;SDS011;37478;55.682;37.462;2024-03-07T04:04:39;8.68;;;5.28;;
51384;SDS011;37478;55.682;37.462;2024-03-07T04:07:04;9.48;;;3.78;;
51384;SDS011;37478;55.682;37.462;2024-03-07T04:09:29;13.77;;;4.32;;
51384;SDS011;37478;55.682;37.462;2024-03-07T04:11:55;7.78;;;3.88;;
51384;SDS011;37478;55.682;37.462;2024-03-07T04:14:20;9.93;;;3.67;;
51384;SDS011;37478;55.682;37.462;2024-03-07T04:16:45;4.97;;;3.22;;
51384;SDS011;37478;55.682;37.462;2024-03-07T04:19:11;8.25;;;3.83;;
51384;SDS011;37478;55.682;37.462;2024-03-07T04:21:36;9.82;;;4.30;;
51384;SDS011;37478;55.682;37.462;2024-03-07T04:24:02;8.50;;;4.55;;
51384;SDS011;37478;55.682;37.462;2024-03-07T04:26:28;8.68;;;3.92;;
51384;SDS011;37478;55.682;37.462;2024-03-07T04:28:53;11.35;;;4.32;;
51384;SDS011;37478;55.682;37.462;2024-03-07T04:31:18;11.77;;;3.90;;
51384;SDS011;37478;55.682;37.462;2024-03-07T04:33:44;9.25;;;3.97;;
51384;SDS011;37478;55.682;37.462;2024-03-07T04:36:09;8.63;;;4.65;;
51384;SDS011;37478;55.682;37.462;2024-03-07T04:38:34;5.68;;;3.55;;
51384;SDS011;37478;55.682;37.462;2024-03-07T04:40:59;9.25;;;3.97;;
51384;SDS011;37478;55.682;37.462;2024-03-07T04:43:25;6.78;;;3.63;;
51384;SDS011;37478;55.682;37.462;2024-03-07T04:45:51;11.70;;;4.22;;
51384;SDS011;37478;55.682;37.462;2024-03-07T04:48:16;6.22;;;3.30;;
51384;SDS011;37478;55.682;37.462;2024-03-07T04:50:42;8.02;;;3.85;;
51384;SDS011;37478;55.682;37.462;2024-03-07T04:53:07;8.07;;;3.72;;
51384;SDS011;37478;55.682;37.462;2024-03-07T04:55:32;6.38;;;4.22;;
51384;SDS011;37478;55.682;37.462;2024-03-07T04:57:58;6.40;;;2.92;;
51384;SDS011;37478;55.682;37.462;2024-03-07T05:00:23;5.97;;;3.15;;
51384;SDS011;37478;55.682;37.462;2024-03-07T05:02:49;6.32;;;2.95;;
51384;SDS011;37478;55.682;37.462;2024-03-07T05:05:17;19.83;;;3.85;;
51384;SDS011;37478;55.682;37.462;2024-03-07T05:07:47;6.53;;;3.30;;
51384;SDS011;37478;55.682;37.462;2024-03-07T05:10:12;12.57;;;3.38;;
51384;SDS011;37478;55.682;37.462;2024-03-07T05:12:38;7.55;;;3.65;;
51384;SDS011;37478;55.682;37.462;2024-03-07T05:15:04;8.43;;;2.92;;
51384;SDS011;37478;55.682;37.462;2024-03-07T05:17:29;5.85;;;2.95;;
51384;SDS011;37478;55.682;37.462;2024-03-07T05:19:58;10.15;;;4.28;;
51384;SDS011;37478;55.682;37.462;2024-03-07T05:22:24;9.95;;;4.18;;
51384;SDS011;37478;55.682;37.462;2024-03-07T05:24:51;5.10;;;3.17;;
51384;SDS011;37478;55.682;37.462;2024-03-07T05:27:16;9.65;;;4.05;;
51384;SDS011;37478;55.682;37.462;2024-03-07T05:29:42;6.68;;;3.90;;
51384;SDS011;37478;55.682;37.462;2024-03-07T05:32:20;10.95;;;4.93;;
51384;SDS011;37478;55.682;37.462;2024-03-07T05:34:46;5.75;;;3.45;;
51384;SDS011;37478;55.682;37.462;2024-03-07T05:37:11;8.45;;;4.10;;
51384;SDS011;37478;55.682;37.462;2024-03-07T05:39:36;7.68;;;3.97;;
51384;SDS011;37478;55.682;37.462;2024-03-07T05:42:02;11.57;;;4.10;;
51384;SDS011;37478;55.682;37.462;2024-03-07T05:44:29;9.60;;;4.18;;
51384;SDS011;37478;55.682;37.462;2024-03-07T05:46:54;8.43;;;4.63;;
51384;SDS011;37478;55.682;37.462;2024-03-07T05:49:19;10.68;;;4.07;;
51384;SDS011;37478;55.682;37.462;2024-03-07T05:51:47;7.65;;;4.05;;
51384;SDS011;37478;55.682;37.462;2024-03-07T05:54:13;4.85;;;3.88;;
51384;SDS011;37478;55.682;37.462;2024-03-07T05:56:39;7.88;;;3.10;;
51384;SDS011;37478;55.682;37.462;2024-03-07T05:59:05;7.80;;;4.28;;
51384;SDS011;37478;55.682;37.462;2024-03-07T06:01:32;5.82;;;3.97;;
51384;SDS011;37478;55.682;37.462;2024-03-07T06:04:00;7.15;;;4.18;;
51384;SDS011;37478;55.682;37.462;2024-03-07T06:06:26;7.90;;;3.70;;
51384;SDS011;37478;55.682;37.462;2024-03-07T06:08:52;13.77;;;3.88;;
51384;SDS011;37478;55.682;37.462;2024-03-07T06:11:17;10.95;;;5.10;;
51384;SDS011;37478;55.682;37.462;2024-03-07T06:13:46;12.10;;;4.70;;
51384;SDS011;37478;55.682;37.462;2024-03-07T06:16:11;12.30;;;5.13;;
51384;SDS011;37478;55.682;37.462;2024-03-07T06:18:39;7.90;;;3.60;;
51384;SDS011;37478;55.682;37.462;2024-03-07T06:21:05;7.63;;;2.65;;
51384;SDS011;37478;55.682;37.462;2024-03-07T06:23:30;7.30;;;3.75;;
51384;SDS011;37478;55.682;37.462;2024-03-07T06:25:55;7.07;;;3.40;;
51384;SDS011;37478;55.682;37.462;2024-03-07T06:28:23;9.98;;;4.72;;
51384;SDS011;37478;55.682;37.462;2024-03-07T06:30:49;10.30;;;4.10;;
51384;SDS011;37478;55.682;37.462;2024-03-07T06:33:14;12.20;;;4.13;;
51384;SDS011;37478;55.682;37.462;2024-03-07T06:35:41;11.63;;;4.18;;
51384;SDS011;37478;55.682;37.462;2024-03-07T06:38:07;8.68;;;3.85;;
51384;SDS011;37478;55.682;37.462;2024-03-07T06:40:33;6.93;;;2.78;;
51384;SDS011;37478;55.682;37.462;2024-03-07T06:42:59;7.97;;;3.60;;
51384;SDS011;37478;55.682;37.462;2024-03-07T06:45:24;8.07;;;3.50;;
51384;SDS011;37478;55.682;37.462;2024-03-07T06:47:50;5.72;;;3.92;;
51384;SDS011;37478;55.682;37.462;2024-03-07T06:50:17;8.45;;;3.72;;
51384;SDS011;37478;55.682;37.462;2024-03-07T06:52:47;10.38;;;3.78;;
51384;SDS011;37478;55.682;37.462;2024-03-07T06:55:16;8.63;;;3.75;;
51384;SDS011;37478;55.682;37.462;2024-03-07T06:57:44;7.22;;;3.55;;
51384;SDS011;37478;55.682;37.462;2024-03-07T07:00:13;11.57;;;3.45;;
51384;SDS011;37478;55.682;37.462;2024-03-07T07:02:42;9.10;;;4.95;;
51384;SDS011;37478;55.682;37.462;2024-03-07T07:05:07;15.18;;;4.55;;
51384;SDS011;37478;55.682;37.462;2024-03-07T07:07:39;10.75;;;4.03;;
51384;SDS011;37478;55.682;37.462;2024-03-07T07:10:07;10.57;;;4.47;;
51384;SDS011;37478;55.682;37.462;2024-03-07T07:12:37;8.02;;;3.50;;
51384;SDS011;37478;55.682;37.462;2024-03-07T07:15:02;17.48;;;3.50;;
51384;SDS011;37478;55.682;37.462;2024-03-07T07:17:28;6.88;;;3.15;;
51384;SDS011;37478;55.682;37.462;2024-03-07T07:19:54;10.90;;;4.00;;
51384;SDS011;37478;55.682;37.462;2024-03-07T07:22:21;6.45;;;3.53;;
51384;SDS011;37478;55.682;37.462;2024-03-07T07:24:46;10.30;;;4.65;;
51384;SDS011;37478;55.682;37.462;2024-03-07T07:27:11;8.30;;;3.47;;
51384;SDS011;37478;55.682;37.462;2024-03-07T07:29:37;8.75;;;3.80;;
51384;SDS011;37478;55.682;37.462;2024-03-07T07:32:02;10.77;;;3.75;;
51384;SDS011;37478;55.682;37.462;2024-03-07T07:34:28;10.15;;;3.25;;
51384;SDS011;37478;55.682;37.462;2024-03-07T07:36:53;7.78;;;4.10;;
51384;SDS011;37478;55.682;37.462;2024-03-07T07:39:18;6.13;;;3.42;;
51384;SDS011;37478;55.682;37.462;2024-03-07T07:41:44;6.60;;;3.83;;
51384;SDS011;37478;55.682;37.462;2024-03-07T07:44:09;8.05;;;3.60;;
51384;SDS011;37478;55.682;37.462;2024-03-07T07:46:34;9.15;;;3.53;;
51384;SDS011;37478;55.682;37.462;2024-03-07T07:49:00;6.93;;;3.33;;
51384;SDS011;37478;55.682;37.462;2024-03-07T07:51:26;11.07;;;3.75;;
51384;SDS011;37478;55.682;37.462;2024-03-07T07:53:51;4.57;;;3.13;;
51384;SDS011;37478;55.682;37.462;2024-03-07T07:56:19;7.10;;;3.80;;
51384;SDS011;37478;55.682;37.462;2024-03-07T07:58:44;7.45;;;3.05;;
51384;SDS011;37478;55.682;37.462;2024-03-07T08:01:10;12.40;;;4.88;;
51384;SDS011;37478;55.682;37.462;2024-03-07T08:03:35;11.50;;;3.55;;
51384;SDS011;37478;55.682;37.462;2024-03-07T08:06:01;5.90;;;2.72;;
51384;SDS011;37478;55.682;37.462;2024-03-07T08:08:27;7.05;;;3.38;;
51384;SDS011;37478;55.682;37.462;2024-03-07T08:10:53;6.32;;;3.20;;
51384;SDS011;37478;55.682;37.462;2024-03-07T08:13:18;6.63;;;3.30;;
51384;SDS011;37478;55.682;37.462;2024-03-07T08:15:43;6.53;;;3.53;;
51384;SDS011;37478;55.682;37.462;2024-03-07T08:18:09;7.43;;;2.70;;
51384;SDS011;37478;55.682;37.462;2024-03-07T08:20:34;13.40;;;3.65;;
51384;SDS011;37478;55.682;37.462;2024-03-07T08:23:00;5.28;;;2.67;;
51384;SDS011;37478;55.682;37.462;2024-03-07T08:25:26;8.20;;;3.70;;
51384;SDS011;37478;55.682;37.462;2024-03-07T08:27:58;5.15;;;3.05;;
51384;SDS011;37478;55.682;37.462;2024-03-07T08:30:24;7.95;;;3.17;;
51384;SDS011;37478;55.682;37.462;2024-03-07T08:32:50;8.80;;;3.00;;
51384;SDS011;37478;55.682;37.462;2024-03-07T08:35:19;10.82;;;2.88;;
51384;SDS011;37478;55.682;37.462;2024-03-07T08:37:45;8.52;;;2.45;;
51384;SDS011;37478;55.682;37.462;2024-03-07T08:40:11;4.03;;;2.63;;
51384;SDS011;37478;55.682;37.462;2024-03-07T08:42:39;6.15;;;3.20;;
51384;SDS011;37478;55.682;37.462;2024-03-07T08:45:06;3.50;;;2.53;;
51384;SDS011;37478;55.682;37.462;2024-03-07T08:47:35;4.82;;;2.10;;
51384;SDS011;37478;55.682;37.462;2024-03-07T08:50:01;5.25;;;2.63;;
51384;SDS011;37478;55.682;37.462;2024-03-07T08:52:27;5.95;;;2.63;;
51384;SDS011;37478;55.682;37.462;2024-03-07T08:54:53;5.22;;;2.97;;
51384;SDS011;37478;55.682;37.462;2024-03-07T08:57:18;5.10;;;2.67;;
51384;SDS011;37478;55.682;37.462;2024-03-07T08:59:44;7.95;;;3.42;;
51384;SDS011;37478;55.682;37.462;2024-03-07T09:02:10;5.05;;;3.45;;
51384;SDS011;37478;55.682;37.462;2024-03-07T09:04:36;5.13;;;3.08;;
51384;SDS011;37478;55.682;37.462;2024-03-07T09:07:03;5.25;;;2.80;;
51384;SDS011;37478;55.682;37.462;2024-03-07T09:09:28;3.03;;;1.95;;
51384;SDS011;37478;55.682;37.462;2024-03-07T09:11:53;6.35;;;2.33;;
51384;SDS011;37478;55.682;37.462;2024-03-07T09:14:19;6.57;;;2.40;;
51384;SDS011;37478;55.682;37.462;2024-03-07T09:16:45;4.35;;;2.60;;
51384;SDS011;37478;55.682;37.462;2024-03-07T09:19:13;7.00;;;2.80;;
51384;SDS011;37478;55.682;37.462;2024-03-07T09:21:39;5.03;;;2.42;;
51384;SDS011;37478;55.682;37.462;2024-03-07T09:24:05;6.93;;;2.55;;
51384;SDS011;37478;55.682;37.462;2024-03-07T09:26:32;6.05;;;2.92;;
51384;SDS011;37478;55.682;37.462;2024-03-07T09:28:57;6.40;;;2.67;;
51384;SDS011;37478;55.682;37.462;2024-03-07T09:31:22;7.65;;;2.47;;
51384;SDS011;37478;55.682;37.462;2024-03-07T09:33:48;7.05;;;2.53;;
51384;SDS011;37478;55.682;37.462;2024-03-07T09:36:14;3.78;;;2.50;;
51384;SDS011;37478;55.682;37.462;2024-03-07T09:38:39;3.17;;;2.42;;
51384;SDS011;37478;55.682;37.462;2024-03-07T09:41:06;16.20;;;2.97;;
51384;SDS011;37478;55.682;37.462;2024-03-07T09:43:31;8.80;;;3.13;;
51384;SDS011;37478;55.682;37.462;2024-03-07T09:45:58;6.25;;;2.55;;
51384;SDS011;37478;55.682;37.462;2024-03-07T09:48:24;3.35;;;2.13;;
51384;SDS011;37478;55.682;37.462;2024-03-07T09:50:53;7.30;;;2.65;;
51384;SDS011;37478;55.682;37.462;2024-03-07T09:53:20;6.35;;;3.10;;
51384;SDS011;37478;55.682;37.462;2024-03-07T09:55:45;5.07;;;2.65;;
51384;SDS011;37478;55.682;37.462;2024-03-07T09:58:11;3.50;;;2.08;;
51384;SDS011;37478;55.682;37.462;2024-03-07T10:00:38;5.13;;;2.63;;
51384;SDS011;37478;55.682;37.462;2024-03-07T10:03:07;3.38;;;2.38;;
51384;SDS011;37478;55.682;37.462;2024-03-07T10:05:33;3.63;;;2.20;;
51384;SDS011;37478;55.682;37.462;2024-03-07T10:07:58;6.07;;;2.35;;
51384;SDS011;37478;55.682;37.462;2024-03-07T10:10:24;3.83;;;2.40;;
51384;SDS011;37478;55.682;37.462;2024-03-07T10:12:49;3.03;;;1.88;;
51384;SDS011;37478;55.682;37.462;2024-03-07T10:15:15;4.22;;;2.88;;
51384;SDS011;37478;55.682;37.462;2024-03-07T10:17:42;5.47;;;2.53;;
51384;SDS011;37478;55.682;37.462;2024-03-07T10:20:08;10.30;;;2.45;;
51384;SDS011;37478;55.682;37.462;2024-03-07T10:22:38;4.00;;;2.05;;
51384;SDS011;37478;55.682;37.462;2024-03-07T10:25:04;3.58;;;2.08;;
51384;SDS011;37478;55.682;37.462;2024-03-07T10:27:30;7.05;;;2.90;;
51384;SDS011;37478;55.682;37.462;2024-03-07T10:29:55;2.72;;;2.17;;
51384;SDS011;37478;55.682;37.462;2024-03-07T10:32:23;7.43;;;2.28;;
51384;SDS011;37478;55.682;37.462;2024-03-07T10:34:50;4.85;;;2.75;;
51384;SDS011;37478;55.682;37.462;2024-03-07T10:37:16;7.20;;;2.88;;
51384;SDS011;37478;55.682;37.462;2024-03-07T10:39:45;6.82;;;2.70;;
51384;SDS011;37478;55.682;37.462;2024-03-07T10:42:13;5.00;;;2.60;;
51384;SDS011;37478;55.682;37.462;2024-03-07T10:44:41;5.05;;;2.47;;
51384;SDS011;37478;55.682;37.462;2024-03-07T10:47:09;4.30;;;2.45;;
51384;SDS011;37478;55.682;37.462;2024-03-07T10:49:36;2.60;;;2.05;;
51384;SDS011;37478;55.682;37.462;2024-03-07T10:52:10;3.17;;;1.85;;
51384;SDS011;37478;55.682;37.462;2024-03-07T11:00:06;3.95;;;2.72;;
51384;SDS011;37478;55.682;37.462;2024-03-07T11:02:51;3.47;;;2.40;;
51384;SDS011;37478;55.682;37.462;2024-03-07T11:05:20;6.22;;;2.78;;
51384;SDS011;37478;55.682;37.462;2024-03-07T11:07:49;4.53;;;2.47;;
51384;SDS011;37478;55.682;37.462;2024-03-07T11:10:15;7.20;;;2.53;;
51384;SDS011;37478;55.682;37.462;2024-03-07T11:12:42;4.30;;;2.55;;
51384;SDS011;37478;55.682;37.462;2024-03-07T11:15:09;3.95;;;2.20;;
51384;SDS011;37478;55.682;37.462;2024-03-07T11:17:49;5.57;;;2.45;;
51384;SDS011;37478;55.682;37.462;2024-03-07T11:20:19;4.95;;;2.00;;
51384;SDS011;37478;55.682;37.462;2024-03-07T11:22:47;7.63;;;2.75;;
51384;SDS011;37478;55.682;37.462;2024-03-07T11:25:12;7.88;;;2.35;;
51384;SDS011;37478;55.682;37.462;2024-03-07T11:27:38;5.25;;;2.25;;
51384;SDS011;37478;55.682;37.462;2024-03-07T11:30:07;2.90;;;2.10;;
51384;SDS011;37478;55.682;37.462;2024-03-07T11:32:39;4.95;;;2.22;;
51384;SDS011;37478;55.682;37.462;2024-03-07T11:35:12;5.80;;;2.35;;
51384;SDS011;37478;55.682;37.462;2024-03-07T11:37:43;4.65;;;1.95;;
51384;SDS011;37478;55.682;37.462;2024-03-07T11:40:11;11.75;;;2.40;;
51384;SDS011;37478;55.682;37.462;2024-03-07T11:42:46;3.25;;;2.17;;
51384;SDS011;37478;55.682;37.462;2024-03-07T11:45:13;2.85;;;2.00;;
51384;SDS011;37478;55.682;37.462;2024-03-07T11:47:50;4.78;;;2.28;;
51384;SDS011;37478;55.682;37.462;2024-03-07T11:50:15;5.75;;;2.45;;
51384;SDS011;37478;55.682;37.462;2024-03-07T11:52:45;4.95;;;2.38;;
51384;SDS011;37478;55.682;37.462;2024-03-07T11:55:11;3.55;;;2.35;;
51384;SDS011;37478;55.682;37.462;2024-03-07T11:57:37;2.67;;;2.08;;
51384;SDS011;37478;55.682;37.462;2024-03-07T12:00:03;6.97;;;2.45;;
51384;SDS011;37478;55.682;37.462;2024-03-07T12:02:39;4.60;;;2.65;;
51384;SDS011;37478;55.682;37.462;2024-03-07T12:05:05;5.68;;;2.42;;
51384;SDS011;37478;55.682;37.462;2024-03-07T12:07:33;5.03;;;2.03;;
51384;SDS011;37478;55.682;37.462;2024-03-07T12:10:01;4.28;;;2.15;;
51384;SDS011;37478;55.682;37.462;2024-03-07T12:12:29;7.80;;;2.20;;
51384;SDS011;37478;55.682;37.462;2024-03-07T12:14:55;3.17;;;2.00;;
51384;SDS011;37478;55.682;37.462;2024-03-07T12:17:20;4.38;;;2.10;;
51384;SDS011;37478;55.682;37.462;2024-03-07T12:19:46;4.90;;;2.30;;
51384;SDS011;37478;55.682;37.462;2024-03-07T12:22:12;4.30;;;2.40;;
51384;SDS011;37478;55.682;37.462;2024-03-07T12:24:41;2.38;;;1.90;;
51384;SDS011;37478;55.682;37.462;2024-03-07T12:27:10;10.18;;;4.15;;
51384;SDS011;37478;55.682;37.462;2024-03-07T12:29:39;6.25;;;4.28;;
51384;SDS011;37478;55.682;37.462;2024-03-07T12:32:05;3.42;;;2.15;;
51384;SDS011;37478;55.682;37.462;2024-03-07T12:34:33;3.85;;;1.98;;
51384;SDS011;37478;55.682;37.462;2024-03-07T12:37:01;5.22;;;2.33;;
51384;SDS011;37478;55.682;37.462;2024-03-07T12:39:27;3.53;;;2.00;;
51384;SDS011;37478;55.682;37.462;2024-03-07T12:41:58;3.45;;;1.98;;
51384;SDS011;37478;55.682;37.462;2024-03-07T12:44:23;5.28;;;2.25;;
51384;SDS011;37478;55.682;37.462;2024-03-07T12:46:50;8.18;;;3.40;;
51384;SDS011;37478;55.682;37.462;2024-03-07T12:49:21;7.10;;;2.70;;
51384;SDS011;37478;55.682;37.462;2024-03-07T12:51:46;3.58;;;2.15;;
51384;SDS011;37478;55.682;37.462;2024-03-07T12:54:12;6.00;;;2.83;;
51384;SDS011;37478;55.682;37.462;2024-03-07T12:56:37;4.70;;;3.30;;
51384;SDS011;37478;55.682;37.462;2024-03-07T12:59:03;6.43;;;2.55;;
51384;SDS011;37478;55.682;37.462;2024-03-07T13:01:29;8.82;;;2.67;;
51384;SDS011;37478;55.682;37.462;2024-03-07T13:03:54;4.28;;;2.15;;
51384;SDS011;37478;55.682;37.462;2024-03-07T13:06:20;3.75;;;2.00;;
51384;SDS011;37478;55.682;37.462;2024-03-07T13:08:50;7.15;;;2.28;;
51384;SDS011;37478;55.682;37.462;2024-03-07T13:11:15;6.18;;;2.50;;
51384;SDS011;37478;55.682;37.462;2024-03-07T13:13:41;4.60;;;1.88;;
51384;SDS011;37478;55.682;37.462;2024-03-07T13:16:06;4.28;;;2.90;;
51384;SDS011;37478;55.682;37.462;2024-03-07T13:18:32;2.97;;;1.88;;
51384;SDS011;37478;55.682;37.462;2024-03-07T13:20:58;3.28;;;2.10;;
51384;SDS011;37478;55.682;37.462;2024-03-07T13:23:24;4.07;;;2.75;;
51384;SDS011;37478;55.682;37.462;2024-03-07T13:25:52;4.80;;;2.13;;
51384;SDS011;37478;55.682;37.462;2024-03-07T13:28:18;3.67;;;1.77;;
51384;SDS011;37478;55.682;37.462;2024-03-07T13:30:49;2.58;;;1.63;;
51384;SDS011;37478;55.682;37.462;2024-03-07T13:33:15;5.85;;;3.13;;
51384;SDS011;37478;55.682;37.462;2024-03-07T13:35:40;9.05;;;3.03;;
51384;SDS011;37478;55.682;37.462;2024-03-07T13:38:06;6.47;;;2.30;;
51384;SDS011;37478;55.682;37.462;2024-03-07T13:40:32;4.55;;;2.22;;
51384;SDS011;37478;55.682;37.462;2024-03-07T13:43:00;4.88;;;2.17;;
51384;SDS011;37478;55.682;37.462;2024-03-07T13:45:26;4.85;;;1.98;;
51384;SDS011;37478;55.682;37.462;2024-03-07T13:47:52;4.70;;;2.85;;
51384;SDS011;37478;55.682;37.462;2024-03-07T13:50:19;2.50;;;1.75;;
51384;SDS011;37478;55.682;37.462;2024-03-07T13:52:47;4.95;;;1.70;;
51384;SDS011;37478;55.682;37.462;2024-03-07T13:58:04;4.43;;;3.28;;
51384;SDS011;37478;55.682;37.462;2024-03-07T14:08:24;3.53;;;2.20;;
51384;SDS011;37478;55.682;37.462;2024-03-07T14:31:35;6.30;;;2.45;;
51384;SDS011;37478;55.682;37.462;2024-03-07T14:34:06;4.93;;;3.05;;
51384;SDS011;37478;55.682;37.462;2024-03-07T14:36:37;3.20;;;2.10;;
51384;SDS011;37478;55.682;37.462;2024-03-07T14:39:03;3.88;;;1.98;;
51384;SDS011;37478;55.682;37.462;2024-03-07T14:44:12;5.18;;;2.60;;
51384;SDS011;37478;55.682;37.462;2024-03-07T14:46:39;8.70;;;2.92;;
51384;SDS011;37478;55.682;37.462;2024-03-07T14:49:05;5.53;;;2.67;;
51384;SDS011;37478;55.682;37.462;2024-03-07T14:51:32;4.07;;;2.70;;
51384;SDS011;37478;55.682;37.462;2024-03-07T14:53:58;4.03;;;1.67;;
51384;SDS011;37478;55.682;37.462;2024-03-07T14:56:24;3.67;;;2.38;;
51384;SDS011;37478;55.682;37.462;2024-03-07T14:58:51;6.53;;;2.78;;
51384;SDS011;37478;55.682;37.462;2024-03-07T15:01:16;5.20;;;2.42;;
51384;SDS011;37478;55.682;37.462;2024-03-07T15:03:41;7.97;;;2.92;;
51384;SDS011;37478;55.682;37.462;2024-03-07T15:06:10;8.68;;;3.22;;